Huvudsida
METAR-TAF:

METAR-TAF

Flygplatser :

San Antonio del Táchira, Venezuela

latitud: 07-51N, longitud: 072-27W, höjd: 377 m

Aktuellt väderrapport

Denna rapport gjordes för 5 timmar och 56 minuter sedan, klockan 13:00 UTC
Temperatur 24°C
Fuktighet 89%
Tryck 1014 hPa
Sikt 10 km eller mer
Få moln på en höjd av 2000 ft

METAR: SVSA 231300Z /////KT 9999 FEW020 24/22 Q1014

Tid: 14:56 (18:56 UTC)

Väderprognos

Denna rapport gjordes för 2 timmar och 56 minuter sedan, klockan 16:00 UTC
Prognos gäller från 23 kl. 18 UTC till 24 kl. 18 UTC
Vind 5 kt från väst/nordväst
Sikt 10 km eller mer
Få moln på en höjd av 2300 ft
Temporärt
från 23 kl. 18 UTC till 23 kl. 22 UTC
Vind 3 kt från väst
Sikt: 9000 m
Brutna moln på en höjd av 10000 ft
tungt duggregn

TAF: SVSA 231600Z 2318/2418 29005KT 9999 FEW023 TX34/19Z TN22/08Z TEMPO 2318/2322 27003KT 9000 +DZ BKN100

Aktuella väderrapporter och prognoser från 4000 flygplatser (METAR- och TAF-rapporter).

De tillgängliga stationerna syns som gula och röda prickar på kartan.

För musen över prickarna för att se namnen på stationerna.

Klicka sedan för att få väderrapporter och prognoser.

För att ändra kartan: Klicka på de gröna knapparna med ett svart kors på för att zooma in; den gröna knappen med ett streck på för att zooma ut; eller på de gröna pilarna för angränsande kartor.


METAR-TAF: